createdAt,value
2022-11-01T06:15:44.135Z,12.44
2022-11-01T06:25:44.050Z,12.64
2022-11-01T06:35:44.053Z,12.76
2022-11-01T06:45:44.051Z,13.99
2022-11-01T06:55:44.243Z,14.80
2022-11-01T07:05:44.206Z,14.84
2022-11-01T07:15:44.131Z,15.04
2022-11-01T07:25:44.114Z,15.49
2022-11-01T07:35:44.280Z,15.68
2022-11-01T07:45:44.243Z,15.77
2022-11-01T07:55:44.183Z,15.81
2022-11-01T08:05:44.191Z,15.88
2022-11-01T08:15:44.267Z,15.97
2022-11-01T08:25:44.209Z,15.97
2022-11-01T08:35:49.775Z,16.13
2022-11-01T08:45:44.241Z,16.08
2022-11-01T08:55:44.415Z,16.21
2022-11-01T09:05:44.444Z,16.29
2022-11-01T09:15:44.492Z,16.87
2022-11-01T09:25:44.454Z,16.86
2022-11-01T09:35:46.462Z,17.01
2022-11-01T09:45:44.375Z,16.97
2022-11-01T09:55:44.424Z,17.02
2022-11-01T10:05:44.324Z,17.04
2022-11-01T10:15:44.485Z,17.02
2022-11-01T10:25:44.254Z,17.07
2022-11-01T10:35:44.494Z,17.18
2022-11-01T10:45:47.631Z,17.62
2022-11-01T10:55:44.324Z,17.58
2022-11-01T11:05:44.414Z,17.45
2022-11-01T11:15:44.454Z,17.46
2022-11-01T11:25:44.409Z,17.70
2022-11-01T11:35:44.424Z,17.54
2022-11-01T11:45:44.351Z,17.58
2022-11-01T11:55:44.374Z,17.63
2022-11-01T12:05:44.478Z,18.04
2022-11-01T12:15:44.535Z,17.99
2022-11-01T12:25:44.455Z,17.65
2022-11-01T12:35:44.761Z,17.28
2022-11-01T12:45:44.528Z,17.45
2022-11-01T12:55:44.592Z,17.49
2022-11-01T13:05:44.455Z,17.46
2022-11-01T13:15:44.316Z,17.26
2022-11-01T13:25:44.517Z,17.45
2022-11-01T13:35:44.590Z,17.37
2022-11-01T13:45:44.720Z,17.41
2022-11-01T13:55:44.783Z,17.23
2022-11-01T14:05:44.865Z,17.39
2022-11-01T14:15:44.823Z,17.30
2022-11-01T14:25:44.788Z,17.56
2022-11-01T14:35:44.765Z,17.22
2022-11-01T14:45:44.881Z,17.08
2022-11-01T14:55:44.776Z,17.00
2022-11-01T15:05:44.641Z,16.66
2022-11-01T15:15:44.767Z,15.96
2022-11-01T15:25:44.829Z,15.62
2022-11-01T15:35:44.849Z,15.20
2022-11-01T15:45:44.908Z,14.74
2022-11-01T15:55:44.831Z,14.40
2022-11-01T16:05:44.916Z,14.02
2022-11-01T16:15:44.853Z,13.96
2022-11-01T16:25:44.910Z,13.87
2022-11-01T16:35:44.817Z,13.81
2022-11-01T16:45:44.886Z,13.16
2022-11-01T16:55:44.994Z,13.21
2022-11-01T17:05:44.955Z,13.30
2022-11-01T17:15:44.766Z,12.39
2022-11-01T17:25:44.889Z,12.24
2022-11-01T17:35:45.007Z,11.80
2022-11-01T17:45:44.753Z,11.45
2022-11-01T17:55:44.843Z,12.01
2022-11-01T18:05:44.819Z,11.90
2022-11-01T18:15:45.037Z,11.84
2022-11-01T18:25:45.082Z,12.00
2022-11-01T18:35:45.018Z,12.21
2022-11-01T18:46:04.840Z,11.98
2022-11-01T18:55:45.128Z,11.98
2022-11-01T19:05:45.117Z,12.24
2022-11-01T19:15:47.992Z,12.26
